Time;durP1;ratioP1;P1;durP2;ratioP2;P2;SDS_P1;SDS_P2;PMS_P1;PMS_P2;Temp;Humidity;BMP_temperature;BMP_pressure;BME280_temperature;BME280_humidity;BME280_pressure;Samples;Min_cycle;Max_cycle;Signal;HPM_P1;HPM_P2
2022/08/20 00:00:35;;;;;;;;;4.00;3.00;;;;;20.73;46.96;101374.41;5082659;28;45274;-56
2022/08/20 00:03:07;;;;;;;;;3.25;3.00;;;;;20.69;46.83;101375.44;5072570;28;45337;-56
2022/08/20 00:05:36;;;;;;;;;2.75;2.75;;;;;20.66;46.69;101374.72;5062415;28;45459;-55
2022/08/20 00:08:03;;;;;;;;;4.75;4.00;;;;;20.66;46.32;101374.72;5062335;28;45164;-56
2022/08/20 00:10:31;;;;;;;;;2.25;2.25;;;;;20.60;46.44;101371.41;5062412;28;45168;-54
2022/08/20 00:12:56;;;;;;;;;2.75;2.75;;;;;20.57;46.63;101368.84;5062403;28;45327;-56
2022/08/20 00:15:27;;;;;;;;;6.50;3.00;;;;;20.53;46.58;101361.94;5061991;28;45872;-56
2022/08/20 00:17:54;;;;;;;;;3.25;3.00;;;;;20.52;46.86;101365.53;5062247;28;45298;-55
2022/08/20 00:20:22;;;;;;;;;3.25;1.00;;;;;20.46;46.84;101353.34;5062373;28;45454;-56
2022/08/20 00:22:48;;;;;;;;;2.00;2.00;;;;;20.46;46.52;101368.50;5061752;28;45450;-56
2022/08/20 00:25:14;;;;;;;;;3.25;3.25;;;;;20.43;46.57;101366.81;5061989;28;45449;-55
2022/08/20 00:27:40;;;;;;;;;4.75;3.25;;;;;20.38;46.29;101366.19;5062144;28;45285;-56
2022/08/20 00:30:08;;;;;;;;;3.50;2.75;;;;;20.35;46.59;101355.66;5062229;28;45303;-55
2022/08/20 00:32:50;;;;;;;;;5.50;2.00;;;;;20.30;47.07;101368.31;5061877;28;45533;-56
2022/08/20 00:35:18;;;;;;;;;6.00;3.25;;;;;20.26;46.98;101372.06;5060664;28;47267;-56
2022/08/20 00:37:43;;;;;;;;;5.00;4.00;;;;;20.21;47.11;101371.41;5060274;28;45371;-56
2022/08/20 00:40:12;;;;;;;;;3.75;3.00;;;;;20.22;46.68;101373.16;5062133;28;45253;-56
2022/08/20 00:42:46;;;;;;;;;5.50;3.50;;;;;20.18;46.75;101368.88;5061864;28;45384;-56
2022/08/20 00:45:12;;;;;;;;;4.50;3.00;;;;;20.14;47.25;101376.16;5061812;28;45220;-56
2022/08/20 00:47:43;;;;;;;;;5.00;4.00;;;;;20.12;46.93;101378.91;5061555;28;45771;-55
2022/08/20 00:50:11;;;;;;;;;3.25;2.00;;;;;20.11;47.26;101378.94;5062063;28;45246;-57
2022/08/20 00:52:38;;;;;;;;;4.00;3.50;;;;;20.07;47.00;101380.88;5079712;28;45348;-55
2022/08/20 00:55:05;;;;;;;;;4.25;4.25;;;;;20.02;47.21;101377.56;5082081;28;46118;-55
2022/08/20 00:57:40;;;;;;;;;5.00;4.00;;;;;20.01;46.80;101383.81;5081824;28;45295;-56
2022/08/20 01:00:14;;;;;;;;;3.00;2.00;;;;;19.96;46.97;101378.69;5082106;28;45594;-56
2022/08/20 01:02:41;;;;;;;;;2.75;2.75;;;;;19.97;47.50;101384.88;5073791;28;45264;-56
2022/08/20 01:05:08;;;;;;;;;4.00;2.50;;;;;19.93;47.44;101375.28;5060373;28;45329;-54
2022/08/20 01:07:36;;;;;;;;;5.75;2.00;;;;;19.92;46.98;101386.88;5061282;28;45395;-55
2022/08/20 01:10:12;;;;;;;;;1.50;1.50;;;;;19.88;46.87;101382.63;5060291;28;45237;-55
2022/08/20 01:12:42;;;;;;;;;3.25;2.75;;;;;19.85;47.03;101380.09;5061407;28;45315;-55
2022/08/20 01:15:12;;;;;;;;;2.75;2.75;;;;;19.83;47.67;101382.81;5061322;28;47114;-55
2022/08/20 01:17:44;;;;;;;;;3.75;2.50;;;;;19.81;47.11;101379.34;5061241;28;45406;-54
2022/08/20 01:20:18;;;;;;;;;4.50;2.50;;;;;19.79;47.72;101370.53;5061444;28;45169;-56
2022/08/20 01:25:47;;;;;;;;;2.75;2.75;;;;;19.75;47.52;101364.47;5070278;28;46274;-57
2022/08/20 01:28:15;;;;;;;;;2.50;2.00;;;;;19.72;47.39;101358.38;5081476;28;45243;-55
2022/08/20 01:30:41;;;;;;;;;4.50;3.00;;;;;19.70;47.73;101361.13;5081470;28;45346;-56
2022/08/20 01:33:07;;;;;;;;;6.00;3.75;;;;;19.68;47.57;101365.63;5081169;28;45470;-54
2022/08/20 01:35:41;;;;;;;;;3.75;3.00;;;;;19.69;47.48;101367.38;5081412;28;45388;-55
2022/08/20 01:38:07;;;;;;;;;4.50;2.75;;;;;19.67;47.44;101366.56;5081117;28;45219;-55
2022/08/20 01:40:56;;;;;;;;;6.25;2.25;;;;;19.63;47.56;101371.19;5081534;28;45416;-56
2022/08/20 01:43:22;;;;;;;;;5.00;3.00;;;;;19.66;47.82;101375.53;5081254;28;45315;-55
2022/08/20 01:45:48;;;;;;;;;4.25;4.25;;;;;19.67;47.51;101389.72;5080794;28;45171;-55
2022/08/20 01:48:14;;;;;;;;;5.00;5.00;;;;;19.64;47.98;101393.38;5081199;28;45283;-55
2022/08/20 01:50:44;;;;;;;;;2.25;2.25;;;;;19.65;48.10;101392.44;5072646;28;45366;-56
2022/08/20 01:53:20;;;;;;;;;4.75;3.75;;;;;19.62;47.71;101382.78;5080934;28;45326;-55
2022/08/20 01:55:46;;;;;;;;;6.25;3.00;;;;;19.61;47.85;101391.69;5081012;28;47210;-56
2022/08/20 01:58:12;;;;;;;;;4.75;2.75;;;;;19.60;47.80;101394.44;5081063;28;45301;-56
2022/08/20 02:00:37;;;;;;;;;7.00;4.50;;;;;19.58;48.07;101393.63;5080855;28;45293;-56
2022/08/20 02:03:03;;;;;;;;;2.00;2.00;;;;;19.57;48.31;101392.78;5069526;28;45300;-54
2022/08/20 02:05:29;;;;;;;;;4.00;3.25;;;;;19.56;48.29;101399.03;5060438;28;45471;-56
2022/08/20 02:07:55;;;;;;;;;4.00;3.00;;;;;19.54;48.37;101398.22;5060508;28;45372;-56
2022/08/20 02:10:22;;;;;;;;;4.25;2.00;;;;;19.53;48.32;101407.13;5060562;28;45213;-56
2022/08/20 02:12:48;;;;;;;;;7.00;5.00;;;;;19.49;48.13;101398.38;5060615;28;46555;-55
2022/08/20 02:15:13;;;;;;;;;3.75;2.75;;;;;19.48;48.53;101404.69;5059868;28;45545;-55
2022/08/20 02:17:40;;;;;;;;;8.50;3.00;;;;;19.47;48.09;101402.06;5060462;28;45390;-56
2022/08/20 02:20:09;;;;;;;;;5.25;4.00;;;;;19.45;48.12;101407.47;5060520;28;45252;-56
2022/08/20 02:22:57;;;;;;;;;7.00;3.75;;;;;19.43;48.63;101408.44;5060063;28;45396;-56
2022/08/20 02:25:26;;;;;;;;;3.00;2.75;;;;;19.40;48.11;101405.91;5067524;28;47486;-55
2022/08/20 02:27:53;;;;;;;;;3.00;3.00;;;;;19.35;48.69;101408.75;5080689;28;45331;-56
2022/08/20 02:30:29;;;;;;;;;4.00;3.25;;;;;19.31;48.35;101409.81;5080729;28;45377;-54
2022/08/20 02:32:56;;;;;;;;;2.25;2.25;;;;;19.26;48.59;101403.81;5080606;28;45211;-53
2022/08/20 02:35:21;;;;;;;;;6.25;4.25;;;;;19.24;48.48;101401.19;5080445;28;46118;-56
2022/08/20 02:37:46;;;;;;;;;2.50;2.00;;;;;19.20;48.71;101402.25;5080231;28;45225;-56
2022/08/20 02:40:17;;;;;;;;;4.25;2.00;;;;;19.17;48.70;101410.38;5080693;28;45430;-54
2022/08/20 02:42:42;;;;;;;;;3.50;2.00;;;;;19.12;49.04;101405.22;5080305;28;45264;-55
2022/08/20 02:45:15;;;;;;;;;4.25;3.25;;;;;19.09;49.06;101415.97;5080249;28;46332;-56
2022/08/20 02:47:43;;;;;;;;;6.75;4.50;;;;;19.06;49.00;101413.47;5080242;28;45317;-55
2022/08/20 02:50:13;;;;;;;;;4.00;2.50;;;;;19.01;49.22;101412.78;5073784;28;45247;-55
2022/08/20 02:52:38;;;;;;;;;5.25;3.00;;;;;18.96;49.14;101404.94;5078101;28;45322;-55
2022/08/20 02:55:04;;;;;;;;;5.00;4.50;;;;;18.91;49.36;101406.94;5080139;28;45299;-55
2022/08/20 02:57:29;;;;;;;;;5.50;4.50;;;;;18.90;49.54;101413.19;5080276;28;45248;-55
2022/08/20 02:59:55;;;;;;;;;6.75;3.00;;;;;18.86;49.56;101411.53;5080374;28;45606;-55
2022/08/20 03:02:20;;;;;;;;;4.00;3.00;;;;;18.83;49.06;101412.53;5075013;28;45286;-55
2022/08/20 03:04:45;;;;;;;;;4.00;4.00;;;;;18.82;49.31;101417.91;5059952;28;46205;-56
2022/08/20 03:07:11;;;;;;;;;5.00;3.50;;;;;18.78;49.61;101414.50;5059580;28;45341;-55
2022/08/20 03:09:37;;;;;;;;;5.75;2.75;;;;;18.76;49.35;101420.81;5060306;28;45363;-55
2022/08/20 03:12:04;;;;;;;;;5.00;3.50;;;;;18.72;49.52;101412.06;5059714;28;45165;-55
2022/08/20 03:14:29;;;;;;;;;4.50;4.25;;;;;18.70;49.72;101413.03;5059585;28;46212;-56
2022/08/20 03:16:55;;;;;;;;;3.00;3.00;;;;;18.67;49.55;101411.38;5059459;28;45223;-54
2022/08/20 03:19:21;;;;;;;;;4.00;4.00;;;;;18.62;49.79;101410.69;5059990;28;45404;-55
2022/08/20 03:21:48;;;;;;;;;4.25;2.00;;;;;18.59;49.86;101418.75;5059316;28;45565;-54
2022/08/20 03:24:13;;;;;;;;;4.25;2.25;;;;;18.56;49.96;101411.75;5059524;28;46125;-55
2022/08/20 03:26:39;;;;;;;;;6.00;4.50;;;;;18.53;50.05;101417.22;5059792;28;45607;-53
2022/08/20 03:29:04;;;;;;;;;7.50;6.25;;;;;18.49;49.80;101405.81;5070049;28;45351;-54
2022/08/20 03:31:30;;;;;;;;;7.25;5.25;;;;;18.45;49.87;101406.84;5062862;28;45501;-55
2022/08/20 03:33:55;;;;;;;;;6.75;4.00;;;;;18.45;49.91;101411.28;5063114;28;45298;-55
2022/08/20 03:36:24;;;;;;;;;4.00;3.00;;;;;18.43;49.76;101408.69;5062678;28;45327;-54
2022/08/20 03:38:49;;;;;;;;;5.00;4.00;;;;;18.41;50.31;101413.19;5063034;28;45216;-54
2022/08/20 03:41:15;;;;;;;;;6.00;5.00;;;;;18.38;50.18;101415.97;5062747;28;45173;-55
2022/08/20 03:43:40;;;;;;;;;3.50;3.50;;;;;18.36;50.05;101412.50;5062876;28;47039;-54
2022/08/20 03:46:07;;;;;;;;;5.75;5.00;;;;;18.35;50.23;101418.72;5062895;28;45799;-54
2022/08/20 03:48:32;;;;;;;;;5.50;2.75;;;;;18.30;50.58;101413.59;5061721;28;45336;-52
2022/08/20 03:50:59;;;;;;;;;5.25;3.75;;;;;18.29;50.71;101417.16;5066991;28;45387;-52
2022/08/20 03:53:30;;;;;;;;;3.25;2.50;;;;;18.27;50.43;101424.31;5082898;27;45457;-55
2022/08/20 03:55:56;;;;;;;;;3.50;3.00;;;;;18.27;50.54;101418.16;5082902;28;45235;-55
2022/08/20 03:58:22;;;;;;;;;3.75;3.75;;;;;18.27;50.53;101416.34;5083042;28;45426;-52
2022/08/20 04:00:49;;;;;;;;;4.25;3.50;;;;;18.26;50.89;101416.41;5082473;28;45395;-52
2022/08/20 04:03:16;;;;;;;;;2.75;2.75;;;;;18.24;50.90;101426.22;5062329;28;46686;-54
2022/08/20 04:05:42;;;;;;;;;6.50;5.50;;;;;18.21;50.57;101419.22;5062378;28;45328;-54
2022/08/20 04:08:11;;;;;;;;;6.50;4.25;;;;;18.19;50.69;101421.94;5062420;28;45236;-54
2022/08/20 04:10:37;;;;;;;;;6.50;5.00;;;;;18.17;50.78;101418.47;5060903;28;45202;-54
2022/08/20 04:13:04;;;;;;;;;5.25;5.25;;;;;18.13;50.75;101419.50;5062344;28;46054;-57
2022/08/20 04:15:31;;;;;;;;;4.75;3.25;;;;;18.12;50.84;101420.41;5062175;28;45327;-57
2022/08/20 04:17:56;;;;;;;;;11.50;5.25;;;;;18.10;51.01;101416.97;5062337;28;45346;-57
2022/08/20 04:20:24;;;;;;;;;3.00;3.00;;;;;18.08;50.94;101424.13;5062151;28;45324;-57
2022/08/20 04:22:54;;;;;;;;;2.00;2.00;;;;;18.06;51.30;101420.63;5061559;28;46240;-57
2022/08/20 04:25:20;;;;;;;;;2.50;2.50;;;;;18.03;51.27;101424.25;5061133;28;45391;-57
2022/08/20 04:27:46;;;;;;;;;6.00;5.25;;;;;18.02;51.40;101419.00;5062239;28;45334;-57
2022/08/20 04:30:13;;;;;;;;;5.75;4.25;;;;;18.00;51.13;101421.72;5069317;28;45312;-57
2022/08/20 04:32:40;;;;;;;;;7.50;5.00;;;;;17.98;51.34;101425.34;5081990;28;46233;-56
2022/08/20 04:35:08;;;;;;;;;5.50;3.25;;;;;17.96;51.14;101428.06;5082547;28;45359;-54
2022/08/20 04:37:34;;;;;;;;;4.00;2.50;;;;;17.94;51.37;101426.41;5081688;27;45253;-54
2022/08/20 04:42:55;;;;;;;;;3.00;2.75;;;;;17.91;51.65;101430.00;5082049;28;45367;-54
2022/08/20 04:45:20;;;;;;;;;4.75;3.00;;;;;17.91;51.52;101429.09;5080980;28;45341;-55
2022/08/20 04:47:47;;;;;;;;;4.25;3.25;;;;;17.89;51.27;101430.97;5082197;28;45330;-54
2022/08/20 04:50:13;;;;;;;;;4.50;3.75;;;;;17.89;51.46;101429.16;5075924;28;45539;-53
2022/08/20 04:52:39;;;;;;;;;4.50;4.00;;;;;17.90;51.50;101432.69;5081408;28;45255;-54
2022/08/20 04:55:06;;;;;;;;;3.50;3.25;;;;;17.86;51.61;101424.81;5082115;28;45324;-53
2022/08/20 04:57:34;;;;;;;;;7.25;6.00;;;;;17.89;51.58;101428.31;5081959;28;45206;-54
2022/08/20 04:59:59;;;;;;;;;6.25;5.00;;;;;17.89;51.46;101434.47;5081899;27;45313;-55
2022/08/20 05:02:24;;;;;;;;;6.00;5.25;;;;;17.89;51.61;101444.25;5076383;28;46101;-55
2022/08/20 05:04:50;;;;;;;;;8.00;4.50;;;;;17.89;51.65;101445.13;5061762;28;45417;-54
2022/08/20 05:07:20;;;;;;;;;7.00;3.25;;;;;17.88;51.71;101440.72;5061475;28;45949;-54
2022/08/20 05:09:45;;;;;;;;;5.50;4.25;;;;;17.85;51.63;101443.50;5061728;28;45196;-54
2022/08/20 05:12:14;;;;;;;;;5.00;4.00;;;;;17.85;51.63;101454.97;5061320;28;45884;-54
2022/08/20 05:14:39;;;;;;;;;5.00;5.00;;;;;17.85;51.80;101448.81;5061598;28;45322;-55
2022/08/20 05:17:05;;;;;;;;;4.00;4.00;;;;;17.86;51.62;101451.41;5061384;28;45492;-53
2022/08/20 05:19:32;;;;;;;;;5.25;4.50;;;;;17.86;51.64;101453.19;5061468;28;45617;-54
2022/08/20 05:21:58;;;;;;;;;6.00;3.25;;;;;17.85;52.04;101454.97;5060965;28;45426;-54
2022/08/20 05:24:24;;;;;;;;;5.50;4.25;;;;;17.84;51.80;101450.59;5061297;28;45309;-54
2022/08/20 05:26:49;;;;;;;;;4.50;4.25;;;;;17.82;51.82;101452.44;5061218;28;45370;-54
2022/08/20 05:29:15;;;;;;;;;5.00;4.25;;;;;17.74;51.89;101445.63;5072156;28;45396;-54
2022/08/20 05:31:41;;;;;;;;;3.75;2.00;;;;;17.80;52.22;101450.75;5062317;28;46353;-53
2022/08/20 05:34:10;;;;;;;;;2.00;2.00;;;;;17.78;51.90;101458.75;5061187;28;45368;-55
2022/08/20 05:36:46;;;;;;;;;4.00;3.50;;;;;17.78;52.24;101457.91;5059583;28;45319;-52
2022/08/20 05:39:12;;;;;;;;;4.00;4.00;;;;;17.77;51.95;101457.00;5061115;28;45293;-55
2022/08/20 05:41:39;;;;;;;;;6.50;5.00;;;;;17.74;52.04;101459.78;5061019;28;45415;-55
2022/08/20 05:44:09;;;;;;;;;3.75;3.50;;;;;17.75;51.88;101464.19;5060777;28;45230;-55
2022/08/20 05:46:38;;;;;;;;;5.00;4.25;;;;;17.74;52.22;101464.25;5059739;28;45322;-54
2022/08/20 05:49:03;;;;;;;;;7.75;4.50;;;;;17.71;52.32;101466.06;5060369;28;45397;-53
2022/08/20 05:51:29;;;;;;;;;3.75;3.00;;;;;17.69;52.18;101470.56;5068625;28;45224;-54
2022/08/20 05:53:56;;;;;;;;;7.50;4.75;;;;;17.70;52.08;101482.06;5081202;28;47314;-54
2022/08/20 05:56:22;;;;;;;;;8.50;5.75;;;;;17.68;52.17;101473.28;5081263;28;45214;-55
2022/08/20 05:58:48;;;;;;;;;6.50;6.25;;;;;17.67;52.37;101471.53;5080861;28;45395;-54
2022/08/20 06:01:13;;;;;;;;;5.50;4.00;;;;;17.67;52.24;101475.06;5080718;28;46208;-55
2022/08/20 06:06:22;;;;;;;;;5.50;4.75;;;;;17.65;52.27;101473.38;5060657;28;45398;-55
2022/08/20 06:08:47;;;;;;;;;3.00;3.00;;;;;17.60;52.19;101475.31;5060497;28;45331;-55
2022/08/20 06:11:13;;;;;;;;;4.50;4.00;;;;;17.61;52.22;101469.97;5060414;28;45359;-54
2022/08/20 06:13:38;;;;;;;;;5.75;5.00;;;;;17.63;52.32;101477.88;5077391;28;45446;-54
2022/08/20 06:16:03;;;;;;;;;6.75;5.00;;;;;17.63;52.57;101486.69;5069792;28;45375;-54
2022/08/20 06:18:29;;;;;;;;;10.25;6.50;;;;;17.60;52.65;101476.19;5073269;28;45391;-54
2022/08/20 06:20:55;;;;;;;;;5.50;5.00;;;;;17.63;52.50;101480.53;5059861;28;57365;-54
2022/08/20 06:23:22;;;;;;;;;4.00;4.00;;;;;17.62;52.45;101484.97;5060331;28;45350;-52
2022/08/20 06:25:48;;;;;;;;;7.25;5.50;;;;;17.63;52.32;101484.03;5060129;28;45495;-55
2022/08/20 06:28:14;;;;;;;;;7.00;5.25;;;;;17.64;52.64;101488.44;5060287;28;45398;-54
2022/08/20 06:30:39;;;;;;;;;4.00;4.00;;;;;17.66;52.51;101485.72;5060092;28;45906;-54
2022/08/20 06:33:05;;;;;;;;;10.25;7.25;;;;;17.67;52.69;101479.50;5060153;28;45257;-55
2022/08/20 06:35:31;;;;;;;;;7.00;6.25;;;;;17.66;52.45;101483.97;5060535;28;45496;-53
2022/08/20 06:37:59;;;;;;;;;4.00;4.00;;;;;17.70;52.78;101488.25;5059981;28;45600;-55
2022/08/20 06:40:27;;;;;;;;;5.50;4.00;;;;;17.72;52.54;101482.88;5059991;28;46617;-54
2022/08/20 06:42:54;;;;;;;;;5.75;3.25;;;;;17.75;52.57;101484.56;5059935;28;45505;-54
2022/08/20 06:45:25;;;;;;;;;8.50;5.00;;;;;17.76;52.68;101483.66;5060220;28;45454;-54
2022/08/20 06:47:53;;;;;;;;;6.50;4.50;;;;;17.78;52.84;101484.47;5059824;28;45307;-53
2022/08/20 06:50:24;;;;;;;;;5.50;4.75;;;;;17.79;52.63;101486.22;5059801;28;45367;-55
2022/08/20 06:52:50;;;;;;;;;5.50;2.25;;;;;17.81;52.73;101493.22;5079783;28;45322;-54
2022/08/20 06:55:16;;;;;;;;;3.75;2.25;;;;;17.84;52.62;101484.28;5080328;28;45446;-54
2022/08/20 06:57:42;;;;;;;;;9.25;5.50;;;;;17.85;52.79;101491.34;5080177;28;45431;-53
2022/08/20 07:00:13;;;;;;;;;3.25;3.25;;;;;17.87;52.91;101484.16;5080040;28;46301;-54
2022/08/20 07:02:39;;;;;;;;;6.25;4.75;;;;;17.90;52.68;101488.50;5076283;28;45360;-54
2022/08/20 07:05:06;;;;;;;;;5.00;4.25;;;;;17.95;52.59;101487.50;5063626;28;45341;-53
2022/08/20 07:07:31;;;;;;;;;4.75;4.25;;;;;17.99;52.60;101489.13;5063168;28;45382;-51
2022/08/20 07:10:04;;;;;;;;;4.75;4.75;;;;;18.03;52.55;101482.75;5063400;28;45318;-54
2022/08/20 07:12:29;;;;;;;;;5.50;5.00;;;;;18.07;52.75;101486.19;5070968;28;45388;-54
2022/08/20 07:14:55;;;;;;;;;4.00;3.75;;;;;18.10;52.95;101480.78;5083739;28;45325;-55
2022/08/20 07:17:20;;;;;;;;;4.75;4.00;;;;;18.13;52.60;101478.00;5082288;28;45452;-52
2022/08/20 07:19:45;;;;;;;;;7.00;5.25;;;;;18.17;52.73;101479.63;5083424;28;45456;-53
2022/08/20 07:22:13;;;;;;;;;8.25;5.75;;;;;18.21;52.80;101480.41;5082013;28;45356;-53
2022/08/20 07:24:39;;;;;;;;;5.50;4.00;;;;;18.26;52.49;101485.56;5083325;28;45372;-55
2022/08/20 07:27:05;;;;;;;;;8.75;4.75;;;;;18.29;52.68;101485.47;5083289;28;45458;-55
2022/08/20 07:32:33;;;;;;;;;6.50;5.00;;;;;18.33;52.95;101493.28;5068408;28;46239;-52
2022/08/20 07:32:35;;;;;;;;;7.00;4.00;;;;;18.37;52.94;101496.72;5083241;28;45339;-55
2022/08/20 07:35:01;;;;;;;;;5.50;5.25;;;;;18.42;52.83;101486.78;5083302;28;45270;-55
2022/08/20 07:37:26;;;;;;;;;5.50;2.25;;;;;18.46;52.57;101488.38;5082968;28;45568;-54
2022/08/20 07:39:52;;;;;;;;;4.00;3.75;;;;;18.47;52.76;101487.47;5062065;28;49007;-54
2022/08/20 07:42:17;;;;;;;;;7.00;6.75;;;;;18.52;53.10;101490.84;5075640;28;45439;-54
2022/08/20 07:44:43;;;;;;;;;4.75;4.00;;;;;18.59;53.05;101490.63;5083053;28;45346;-55
2022/08/20 07:47:08;;;;;;;;;5.00;4.00;;;;;18.64;52.95;101496.66;5083051;28;45392;-54
2022/08/20 07:49:40;;;;;;;;;7.50;3.00;;;;;18.69;52.62;101497.34;5081560;28;46052;-54
2022/08/20 07:52:06;;;;;;;;;4.50;3.50;;;;;18.76;53.17;101504.19;5076500;28;45315;-55
2022/08/20 07:54:31;;;;;;;;;6.00;3.00;;;;;18.79;52.78;101498.78;5083404;28;45244;-54
2022/08/20 07:57:04;;;;;;;;;8.75;5.25;;;;;18.84;52.62;101509.22;5082941;28;45239;-54
2022/08/20 07:59:30;;;;;;;;;7.00;4.50;;;;;18.91;52.67;101518.78;5082990;28;46168;-54
2022/08/20 08:01:55;;;;;;;;;4.50;3.75;;;;;18.95;52.68;101506.22;5081098;28;45407;-55
2022/08/20 08:04:23;;;;;;;;;8.00;5.75;;;;;19.02;52.92;101496.19;5069808;28;45425;-54
2022/08/20 08:06:49;;;;;;;;;5.75;3.50;;;;;19.03;52.91;101493.50;5067323;28;45302;-54
2022/08/20 08:09:14;;;;;;;;;4.75;4.50;;;;;19.15;52.74;101494.81;5062413;28;46202;-55
2022/08/20 08:11:49;;;;;;;;;6.00;5.75;;;;;19.23;53.00;101494.50;5062352;28;45398;-55
2022/08/20 08:14:18;;;;;;;;;6.75;4.00;;;;;19.31;52.87;101503.09;5061982;28;45407;-55
2022/08/20 08:16:44;;;;;;;;;5.00;4.00;;;;;19.39;52.57;101494.78;5062155;28;45194;-55
2022/08/20 08:19:13;;;;;;;;;5.00;4.50;;;;;19.45;52.45;101499.88;5062257;28;45216;-53
2022/08/20 08:21:38;;;;;;;;;4.50;3.00;;;;;19.52;52.61;101500.50;5062037;28;45319;-54
2022/08/20 08:24:04;;;;;;;;;6.75;6.75;;;;;19.59;52.87;101502.00;5062292;28;45288;-54
2022/08/20 08:26:29;;;;;;;;;4.00;2.50;;;;;19.67;52.69;101518.53;5062164;28;45407;-54
2022/08/20 08:28:56;;;;;;;;;5.00;4.75;;;;;19.72;52.19;101502.34;5062195;28;45383;-55
2022/08/20 08:31:23;;;;;;;;;5.00;5.00;;;;;19.77;52.48;101514.59;5061509;28;45326;-55
2022/08/20 08:33:49;;;;;;;;;6.50;5.00;;;;;19.84;52.50;101509.91;5062324;28;45330;-55
2022/08/20 08:36:14;;;;;;;;;3.50;2.00;;;;;19.87;52.42;101509.75;5061780;28;45251;-54
2022/08/20 08:38:43;;;;;;;;;3.50;3.50;;;;;19.93;52.42;101508.66;5062084;28;45285;-55
2022/08/20 08:41:23;;;;;;;;;3.00;3.00;;;;;20.00;51.94;101514.59;5061894;28;45443;-55
2022/08/20 08:43:52;;;;;;;;;3.00;2.25;;;;;20.08;51.70;101517.81;5061967;28;45480;-54
2022/08/20 08:46:22;;;;;;;;;4.50;4.50;;;;;20.12;51.81;101511.41;5061855;28;45361;-55
2022/08/20 08:48:52;;;;;;;;;5.00;2.00;;;;;20.18;51.80;101510.31;5061643;28;45463;-55
2022/08/20 08:51:38;;;;;;;;;4.75;2.75;;;;;20.26;51.39;101513.50;5068845;28;45376;-55
2022/08/20 08:54:04;;;;;;;;;5.00;5.00;;;;;20.33;51.90;101511.44;5082216;28;45320;-55
2022/08/20 08:56:30;;;;;;;;;5.00;4.00;;;;;20.40;51.82;101510.22;5082052;28;45314;-55
2022/08/20 08:59:01;;;;;;;;;5.00;4.25;;;;;20.48;51.67;101518.78;5081716;28;46914;-56
2022/08/20 09:01:28;;;;;;;;;5.50;3.00;;;;;20.55;51.06;101519.38;5081872;28;45458;-55
2022/08/20 09:03:53;;;;;;;;;6.50;2.50;;;;;20.63;51.51;101522.59;5064591;27;45327;-55
2022/08/20 09:06:24;;;;;;;;;7.00;4.00;;;;;20.71;51.12;101522.28;5061429;28;45262;-55
2022/08/20 09:08:55;;;;;;;;;7.00;2.00;;;;;20.78;51.14;101521.06;5061557;28;46105;-55
2022/08/20 09:11:22;;;;;;;;;4.50;2.75;;;;;20.82;50.80;101521.78;5061347;28;45438;-54
2022/08/20 09:13:49;;;;;;;;;3.00;2.00;;;;;20.89;50.44;101518.78;5061640;28;45173;-55
2022/08/20 09:16:14;;;;;;;;;3.00;3.00;;;;;20.94;50.78;101516.75;5061389;28;45327;-56
2022/08/20 09:18:40;;;;;;;;;2.25;2.25;;;;;21.01;49.81;101514.66;5061137;28;46227;-55
2022/08/20 09:21:06;;;;;;;;;7.25;3.25;;;;;21.07;50.55;101511.72;5060975;28;45252;-56
2022/08/20 09:23:32;;;;;;;;;4.00;2.75;;;;;21.16;50.26;101517.59;5061558;28;45424;-55
2022/08/20 09:25:58;;;;;;;;;6.75;3.00;;;;;21.24;50.01;101508.28;5060180;28;45486;-55
2022/08/20 09:28:24;;;;;;;;;4.75;4.00;;;;;21.36;50.03;101513.97;5061197;28;46278;-56
2022/08/20 09:30:49;;;;;;;;;3.75;2.75;;;;;21.46;49.58;101509.03;5061086;28;45500;-54
2022/08/20 09:33:14;;;;;;;;;4.50;4.00;;;;;21.53;49.48;101508.66;5061341;28;45404;-55
2022/08/20 09:35:40;;;;;;;;;3.00;3.00;;;;;21.65;49.78;101511.75;5061298;28;45458;-55
2022/08/20 09:38:06;;;;;;;;;5.00;3.00;;;;;21.73;49.39;101507.72;5060673;28;47256;-54
2022/08/20 09:40:32;;;;;;;;;6.50;2.75;;;;;21.85;49.55;101494.72;5061027;28;45316;-55
2022/08/20 09:42:57;;;;;;;;;5.75;4.00;;;;;21.96;48.88;101507.53;5061016;28;45166;-55
2022/08/20 09:45:23;;;;;;;;;2.25;2.25;;;;;22.08;49.23;101501.56;5068201;28;45229;-55
2022/08/20 09:47:48;;;;;;;;;3.50;3.50;;;;;22.20;49.15;101500.06;5060367;28;45371;-55
2022/08/20 09:50:14;;;;;;;;;3.00;3.00;;;;;22.34;49.05;101502.91;5059542;28;45247;-56
2022/08/20 09:52:46;;;;;;;;;2.00;0.00;;;;;22.45;48.91;101502.41;5079554;28;45324;-55
2022/08/20 09:55:31;;;;;;;;;2.25;2.25;;;;;22.58;48.50;101499.06;5079807;28;45406;-55
2022/08/20 09:57:57;;;;;;;;;6.50;2.75;;;;;22.65;48.45;101508.50;5080999;28;46206;-55
2022/08/20 10:00:23;;;;;;;;;6.50;4.00;;;;;22.73;48.00;101498.25;5080554;28;45327;-55
2022/08/20 10:02:48;;;;;;;;;4.75;1.75;;;;;22.80;48.08;101496.94;5071847;28;45355;-54
2022/08/20 10:05:14;;;;;;;;;4.50;3.00;;;;;22.88;48.18;101493.88;5060674;28;45549;-56
2022/08/20 10:07:40;;;;;;;;;5.25;2.00;;;;;23.00;47.94;101492.34;5060446;28;46112;-56
2022/08/20 10:10:09;;;;;;;;;3.00;3.00;;;;;23.10;47.75;101498.91;5060558;28;45204;-55
2022/08/20 10:12:34;;;;;;;;;5.75;5.75;;;;;23.20;47.59;101493.94;5060697;28;45330;-55
2022/08/20 10:15:00;;;;;;;;;4.00;3.00;;;;;23.24;47.15;101482.09;5060294;28;45564;-53
2022/08/20 10:17:25;;;;;;;;;4.25;3.00;;;;;23.27;47.05;101492.66;5059159;28;46297;-55
2022/08/20 10:19:50;;;;;;;;;2.00;2.00;;;;;23.33;46.65;101486.97;5060480;28;45300;-55
2022/08/20 10:22:16;;;;;;;;;6.75;4.75;;;;;23.40;46.54;101486.63;5060339;28;45347;-57
2022/08/20 10:24:41;;;;;;;;;3.00;2.00;;;;;23.48;46.72;101479.88;5060265;28;45548;-53
2022/08/20 10:27:06;;;;;;;;;4.00;2.00;;;;;23.59;46.79;101481.91;5063846;28;47344;-54
2022/08/20 10:29:32;;;;;;;;;6.00;2.50;;;;;23.69;46.48;101483.09;5060344;28;45284;-56
2022/08/20 10:32:11;;;;;;;;;5.50;3.00;;;;;23.82;46.30;101477.03;5063730;28;45230;-53
2022/08/20 10:34:40;;;;;;;;;4.00;2.50;;;;;24.01;46.29;101483.09;5060219;28;45250;-53
2022/08/20 10:37:06;;;;;;;;;4.25;2.25;;;;;24.21;46.24;101480.16;5059437;28;46306;-54
2022/08/20 10:39:31;;;;;;;;;5.00;3.25;;;;;24.44;46.23;101476.06;5060084;28;45403;-54
2022/08/20 10:41:56;;;;;;;;;2.50;2.25;;;;;24.67;45.84;101480.91;5060297;28;45248;-55
2022/08/20 10:44:22;;;;;;;;;5.00;2.00;;;;;24.94;46.12;101469.41;5059531;28;52818;-55
2022/08/20 10:46:47;;;;;;;;;1.50;1.50;;;;;25.28;46.27;101474.41;5059965;28;45328;-55
2022/08/20 10:49:12;;;;;;;;;74.25;65.25;;;;;25.69;47.04;101476.25;5059819;28;45339;-54
2022/08/20 10:51:38;;;;;;;;;57.75;47.00;;;;;26.16;46.64;101473.16;5069772;28;45350;-54
2022/08/20 10:54:03;;;;;;;;;2.50;2.50;;;;;26.63;46.03;101476.19;5078722;28;45232;-54
2022/08/20 10:56:28;;;;;;;;;74.67;65.33;;;;;27.10;46.14;101466.56;5080004;28;45227;-55
2022/08/20 10:58:54;;;;;;;;;4.50;3.75;;;;;27.59;46.19;101470.19;5064862;28;45452;-54
2022/08/20 11:01:19;;;;;;;;;3.75;1.50;;;;;28.04;44.94;101486.59;5080201;28;45341;-55
2022/08/20 11:03:45;;;;;;;;;4.50;2.25;;;;;28.48;44.96;101484.13;5063284;28;45171;-56
2022/08/20 11:06:10;;;;;;;;;4.50;4.00;;;;;28.99;45.41;101481.94;5059453;28;45356;-57
2022/08/20 11:08:35;;;;;;;;;1.25;1.25;;;;;29.43;44.44;101474.75;5059848;28;45219;-57
2022/08/20 11:11:01;;;;;;;;;2.25;2.25;;;;;29.90;44.56;101471.78;5060087;28;45488;-58
2022/08/20 11:13:26;;;;;;;;;4.50;2.75;;;;;30.32;43.60;101479.06;5059875;28;45318;-57
2022/08/20 11:15:51;;;;;;;;;1.75;1.75;;;;;30.65;43.78;101477.13;5059809;28;45339;-56
2022/08/20 11:18:17;;;;;;;;;3.75;2.00;;;;;30.98;42.58;101476.94;5059481;28;45245;-58
2022/08/20 11:20:42;;;;;;;;;1.50;1.50;;;;;31.27;42.90;101482.47;5058266;28;45249;-58
2022/08/20 11:23:07;;;;;;;;;3.00;3.00;;;;;31.55;42.10;101483.53;5059580;28;45346;-56
2022/08/20 11:25:33;;;;;;;;;2.00;2.00;;;;;31.81;40.97;101480.31;5059729;28;45489;-56
2022/08/20 11:27:58;;;;;;;;;4.00;3.00;;;;;32.06;40.98;101489.72;5058281;28;45772;-57
2022/08/20 11:30:30;;;;;;;;;4.00;3.00;;;;;32.35;40.79;101483.41;5059827;28;45365;-57
2022/08/20 11:32:57;;;;;;;;;8.00;2.50;;;;;32.67;40.85;101471.25;5059338;28;45333;-57